Time;durP1;ratioP1;P1;durP2;ratioP2;P2;SDS_P1;SDS_P2;PMS_P1;PMS_P2;Temp;Humidity;BMP_temperature;BMP_pressure;BME280_temperature;BME280_humidity;BME280_pressure;Samples;Min_cycle;Max_cycle;Signal;HPM_P1;HPM_P2
2022/03/27 00:00:16;;;;;;;;;;;;;;;;;;1031436;28;933;-34
2022/03/27 00:00:46;;;;;;;;;;;;;;;;;;1031362;28;969;-34
2022/03/27 00:01:18;;;;;;;;;;;;;;;;;;1031373;28;942;-35
2022/03/27 00:01:49;;;;;;;;;;;;;;;;;;1031209;28;946;-31
2022/03/27 00:02:20;;;;;;;;;;;;;;;;;;1031340;28;962;-32
2022/03/27 00:02:50;;;;;;;;;;;;;;;;;;1031331;28;898;-34
2022/03/27 00:03:20;;;;;;;;;;;;;;;;;;1031464;28;906;-33
2022/03/27 00:03:50;;;;;;;;;;;;;;;;;;1031335;28;807;-33
2022/03/27 00:04:21;;;;;;;;;;;;;;;;;;1031480;28;921;-35
2022/03/27 00:04:51;;;;;;;;;;;;;;;;;;1031033;28;918;-35
2022/03/27 00:05:21;;;;;;;;;;;;;;;;;;1031320;28;862;-34
2022/03/27 00:05:52;;;;;;;;;;;;;;;;;;1031344;28;906;-35
2022/03/27 00:06:22;;;;;;;;;;;;;;;;;;1031274;28;779;-35
2022/03/27 00:06:52;;;;;;;;;;;;;;;;;;1031378;28;851;-33
2022/03/27 00:07:23;;;;;;;;;;;;;;;;;;1031404;28;877;-33
2022/03/27 00:07:53;;;;;;;;;;;;;;;;;;1031242;28;907;-35
2022/03/27 00:08:23;;;;;;;;;;;;;;;;;;1031398;28;871;-35
2022/03/27 00:08:54;;;;;;;;;;;;;;;;;;1026896;28;863;-32
2022/03/27 00:09:24;;;;;;;;;;;;;;;;;;1026993;28;1919;-32
2022/03/27 00:09:54;;;;;;;;;;;;;;;;;;1027049;28;938;-31
2022/03/27 00:10:25;;;;;;;;;;;;;;;;;;1026955;28;815;-33
2022/03/27 00:11:44;;;;;;;;;;;;;;;;;;1031186;28;958;-34
2022/03/27 00:12:15;;;;;;;;;;;;;;;;;;1031196;28;871;-31
2022/03/27 00:12:45;;;;;;;;;;;;;;;;;;1030861;28;992;-34
2022/03/27 00:13:16;;;;;;;;;;;;;;;;;;1031318;28;965;-32
2022/03/27 00:13:46;;;;;;;;;;;;;;;;;;1030708;28;1262;-34
2022/03/27 00:14:17;;;;;;;;;;;;;;;;;;1031283;28;898;-35
2022/03/27 00:14:47;;;;;;;;;;;;;;;;;;1031472;28;897;-32
2022/03/27 00:15:17;;;;;;;;;;;;;;;;;;1031327;28;996;-33
2022/03/27 00:15:47;;;;;;;;;;;;;;;;;;1031338;28;953;-31
2022/03/27 00:16:18;;;;;;;;;;;;;;;;;;1031344;28;866;-35
2022/03/27 00:16:49;;;;;;;;;;;;;;;;;;1031375;28;1012;-34
2022/03/27 00:17:19;;;;;;;;;;;;;;;;;;1031210;28;866;-35
2022/03/27 00:17:50;;;;;;;;;;;;;;;;;;1030978;28;1147;-34
2022/03/27 00:18:20;;;;;;;;;;;;;;;;;;1031254;28;861;-33
2022/03/27 00:18:50;;;;;;;;;;;;;;;;;;1031380;28;961;-35
2022/03/27 00:19:21;;;;;;;;;;;;;;;;;;1031366;28;811;-33
2022/03/27 00:19:51;;;;;;;;;;;;;;;;;;1030987;28;933;-35
2022/03/27 00:20:21;;;;;;;;;;;;;;;;;;1031376;28;981;-33
2022/03/27 00:20:53;;;;;;;;;;;;;;;;;;1031279;28;1169;-33
2022/03/27 00:21:23;;;;;;;;;;;;;;;;;;1031234;28;950;-33
2022/03/27 00:21:53;;;;;;;;;;;;;;;;;;1032592;28;957;-36
2022/03/27 00:22:24;;;;;;;;;;;;;;;;;;1034390;28;1115;-33
2022/03/27 00:22:54;;;;;;;;;;;;;;;;;;1035276;28;1110;-35
2022/03/27 00:23:24;;;;;;;;;;;;;;;;;;1035282;28;972;-35
2022/03/27 00:23:55;;;;;;;;;;;;;;;;;;1035500;28;807;-35
2022/03/27 00:24:25;;;;;;;;;;;;;;;;;;1035517;28;850;-35
2022/03/27 00:24:56;;;;;;;;;;;;;;;;;;1034829;28;728;-33
2022/03/27 00:25:26;;;;;;;;;;;;;;;;;;1035127;28;890;-31
2022/03/27 00:25:57;;;;;;;;;;;;;;;;;;1034944;28;778;-32
2022/03/27 00:26:27;;;;;;;;;;;;;;;;;;1035072;28;933;-33
2022/03/27 00:26:57;;;;;;;;;;;;;;;;;;1035420;28;834;-32
2022/03/27 00:27:28;;;;;;;;;;;;;;;;;;1035054;28;827;-34
2022/03/27 00:27:58;;;;;;;;;;;;;;;;;;1036123;28;798;-34
2022/03/27 00:28:32;;;;;;;;;;;;;;;;;;1035777;28;1289;-34
2022/03/27 00:29:02;;;;;;;;;;;;;;;;;;1035609;28;1973;-34
2022/03/27 00:29:36;;;;;;;;;;;;;;;;;;1035865;28;847;-31
2022/03/27 00:30:07;;;;;;;;;;;;;;;;;;1035782;28;1216;-33
2022/03/27 00:30:38;;;;;;;;;;;;;;;;;;1036003;28;941;-34
2022/03/27 00:31:10;;;;;;;;;;;;;;;;;;1036302;28;899;-32
2022/03/27 00:31:41;;;;;;;;;;;;;;;;;;1035999;28;854;-31
2022/03/27 00:32:11;;;;;;;;;;;;;;;;;;1036158;28;1068;-34
2022/03/27 00:32:41;;;;;;;;;;;;;;;;;;1036105;28;834;-34
2022/03/27 00:33:16;;;;;;;;;;;;;;;;;;1036065;28;997;-32
2022/03/27 00:33:47;;;;;;;;;;;;;;;;;;1036325;28;905;-32
2022/03/27 00:34:19;;;;;;;;;;;;;;;;;;1035913;28;978;-34
2022/03/27 00:34:49;;;;;;;;;;;;;;;;;;1032192;28;1122;-34
2022/03/27 00:35:20;;;;;;;;;;;;;;;;;;1032023;28;882;-31
2022/03/27 00:35:50;;;;;;;;;;;;;;;;;;1032223;28;918;-35
2022/03/27 00:36:21;;;;;;;;;;;;;;;;;;1031990;28;795;-34
2022/03/27 00:36:51;;;;;;;;;;;;;;;;;;1032146;28;934;-32
2022/03/27 00:37:22;;;;;;;;;;;;;;;;;;1032027;28;925;-32
2022/03/27 00:37:52;;;;;;;;;;;;;;;;;;1032106;28;835;-33
2022/03/27 00:38:23;;;;;;;;;;;;;;;;;;1031846;28;846;-32
2022/03/27 00:38:53;;;;;;;;;;;;;;;;;;1032210;28;882;-34
2022/03/27 00:39:23;;;;;;;;;;;;;;;;;;1032099;28;886;-33
2022/03/27 00:40:03;;;;;;;;;;;;;;;;;;1032098;28;1395;-31
2022/03/27 00:40:34;;;;;;;;;;;;;;;;;;1032057;28;934;-32
2022/03/27 00:41:05;;;;;;;;;;;;;;;;;;1031884;28;961;-30
2022/03/27 00:41:36;;;;;;;;;;;;;;;;;;1031946;28;866;-35
2022/03/27 00:42:07;;;;;;;;;;;;;;;;;;1031593;28;859;-32
2022/03/27 00:42:37;;;;;;;;;;;;;;;;;;1031937;28;933;-30
2022/03/27 00:43:08;;;;;;;;;;;;;;;;;;1032157;28;885;-33
2022/03/27 00:43:39;;;;;;;;;;;;;;;;;;1031900;28;965;-34
2022/03/27 00:44:09;;;;;;;;;;;;;;;;;;1032102;28;875;-33
2022/03/27 00:44:40;;;;;;;;;;;;;;;;;;1031964;28;1597;-29
2022/03/27 00:45:10;;;;;;;;;;;;;;;;;;1032066;28;969;-33
2022/03/27 00:45:41;;;;;;;;;;;;;;;;;;1031988;28;911;-32
2022/03/27 00:46:11;;;;;;;;;;;;;;;;;;1032131;28;933;-32
2022/03/27 00:46:41;;;;;;;;;;;;;;;;;;1031977;28;827;-33
2022/03/27 00:47:12;;;;;;;;;;;;;;;;;;1032042;28;953;-33
2022/03/27 00:47:44;;;;;;;;;;;;;;;;;;1031905;28;855;-31
2022/03/27 00:48:14;;;;;;;;;;;;;;;;;;1032125;28;842;-32
2022/03/27 00:48:45;;;;;;;;;;;;;;;;;;1032022;28;850;-33
2022/03/27 00:49:15;;;;;;;;;;;;;;;;;;1031367;28;1981;-32
2022/03/27 00:49:46;;;;;;;;;;;;;;;;;;1031554;28;803;-34
2022/03/27 00:50:16;;;;;;;;;;;;;;;;;;1031568;28;802;-33
2022/03/27 00:50:47;;;;;;;;;;;;;;;;;;1031678;28;906;-35
2022/03/27 00:51:18;;;;;;;;;;;;;;;;;;1032024;28;882;-33
2022/03/27 00:51:48;;;;;;;;;;;;;;;;;;1031947;28;874;-34
2022/03/27 00:52:18;;;;;;;;;;;;;;;;;;1032054;28;965;-32
2022/03/27 00:52:49;;;;;;;;;;;;;;;;;;1031864;28;929;-34
2022/03/27 00:53:19;;;;;;;;;;;;;;;;;;1031992;28;922;-36
2022/03/27 00:53:50;;;;;;;;;;;;;;;;;;1032112;28;1084;-35
2022/03/27 00:54:20;;;;;;;;;;;;;;;;;;1031963;28;887;-33
2022/03/27 00:54:51;;;;;;;;;;;;;;;;;;1032054;28;894;-33
2022/03/27 00:55:21;;;;;;;;;;;;;;;;;;1031948;28;867;-35
2022/03/27 00:55:52;;;;;;;;;;;;;;;;;;1031981;28;961;-36
2022/03/27 00:56:22;;;;;;;;;;;;;;;;;;1032000;28;985;-32
2022/03/27 00:56:52;;;;;;;;;;;;;;;;;;1031685;28;886;-30
2022/03/27 00:57:23;;;;;;;;;;;;;;;;;;1031955;28;871;-32
2022/03/27 00:57:55;;;;;;;;;;;;;;;;;;1032085;28;969;-36
2022/03/27 00:58:26;;;;;;;;;;;;;;;;;;1032025;28;926;-32
2022/03/27 00:58:56;;;;;;;;;;;;;;;;;;1031976;28;846;-30
2022/03/27 00:59:26;;;;;;;;;;;;;;;;;;1031899;28;1068;-35
2022/03/27 00:59:57;;;;;;;;;;;;;;;;;;1032042;28;958;-32
2022/03/27 01:00:45;;;;;;;;;;;;;;;;;;1032073;28;930;-34
2022/03/27 01:01:19;;;;;;;;;;;;;;;;;;1031904;28;918;-31
2022/03/27 01:01:49;;;;;;;;;;;;;;;;;;1031857;28;824;-35
2022/03/27 01:02:20;;;;;;;;;;;;;;;;;;1031895;28;1052;-33
2022/03/27 01:02:50;;;;;;;;;;;;;;;;;;1031972;28;879;-33
2022/03/27 01:03:23;;;;;;;;;;;;;;;;;;1032006;28;942;-35
2022/03/27 01:03:54;;;;;;;;;;;;;;;;;;1031952;28;910;-34
2022/03/27 01:04:24;;;;;;;;;;;;;;;;;;1031619;28;946;-34
2022/03/27 01:04:55;;;;;;;;;;;;;;;;;;1031895;28;981;-35
2022/03/27 01:05:28;;;;;;;;;;;;;;;;;;1032023;28;953;-32
2022/03/27 01:05:58;;;;;;;;;;;;;;;;;;1031990;28;980;-34
2022/03/27 01:06:36;;;;;;;;;;;;;;;;;;1031842;28;1390;-33
2022/03/27 01:07:06;;;;;;;;;;;;;;;;;;1032114;28;842;-34
2022/03/27 01:07:38;;;;;;;;;;;;;;;;;;1031740;28;835;-35
2022/03/27 01:08:10;;;;;;;;;;;;;;;;;;1031952;28;1001;-36
2022/03/27 01:09:35;;;;;;;;;;;;;;;;;;1031918;28;1914;-33
2022/03/27 01:10:06;;;;;;;;;;;;;;;;;;1031997;28;961;-32
2022/03/27 01:10:36;;;;;;;;;;;;;;;;;;1031828;28;800;-33
2022/03/27 01:11:14;;;;;;;;;;;;;;;;;;1032045;28;862;-33
2022/03/27 01:11:45;;;;;;;;;;;;;;;;;;1031388;28;922;-33
2022/03/27 01:12:18;;;;;;;;;;;;;;;;;;1032006;28;804;-34
2022/03/27 01:12:49;;;;;;;;;;;;;;;;;;1031779;28;883;-34
2022/03/27 01:13:20;;;;;;;;;;;;;;;;;;1031991;28;808;-35
2022/03/27 01:13:53;;;;;;;;;;;;;;;;;;1031898;28;958;-33
2022/03/27 01:14:30;;;;;;;;;;;;;;;;;;1031840;28;811;-33
2022/03/27 01:15:01;;;;;;;;;;;;;;;;;;1032003;28;866;-35
2022/03/27 01:15:38;;;;;;;;;;;;;;;;;;1031941;28;823;-34
2022/03/27 01:16:15;;;;;;;;;;;;;;;;;;1031788;28;890;-33
2022/03/27 01:16:55;;;;;;;;;;;;;;;;;;1032091;28;902;-34
2022/03/27 01:17:26;;;;;;;;;;;;;;;;;;1031780;28;950;-31
2022/03/27 01:17:57;;;;;;;;;;;;;;;;;;1031946;28;882;-35
2022/03/27 01:18:27;;;;;;;;;;;;;;;;;;1031790;28;826;-32
2022/03/27 01:18:59;;;;;;;;;;;;;;;;;;1031456;28;1300;-34
2022/03/27 01:19:29;;;;;;;;;;;;;;;;;;1031945;28;934;-35
2022/03/27 01:20:03;;;;;;;;;;;;;;;;;;1032015;28;906;-34
2022/03/27 01:20:35;;;;;;;;;;;;;;;;;;1031698;28;993;-31
2022/03/27 01:21:07;;;;;;;;;;;;;;;;;;1032048;28;866;-33
2022/03/27 01:21:40;;;;;;;;;;;;;;;;;;1031651;28;996;-35
2022/03/27 01:22:11;;;;;;;;;;;;;;;;;;1031984;28;937;-35
2022/03/27 01:22:41;;;;;;;;;;;;;;;;;;1031433;28;1035;-29
2022/03/27 01:23:12;;;;;;;;;;;;;;;;;;1027832;28;835;-32
2022/03/27 01:23:43;;;;;;;;;;;;;;;;;;1027800;28;986;-34
2022/03/27 01:24:14;;;;;;;;;;;;;;;;;;1027868;28;858;-32
2022/03/27 01:24:45;;;;;;;;;;;;;;;;;;1027910;28;887;-34
2022/03/27 01:25:15;;;;;;;;;;;;;;;;;;1027906;28;837;-33
2022/03/27 01:25:46;;;;;;;;;;;;;;;;;;1027878;28;799;-28
2022/03/27 01:26:18;;;;;;;;;;;;;;;;;;1027719;28;811;-33
2022/03/27 01:26:48;;;;;;;;;;;;;;;;;;1027642;28;942;-34
2022/03/27 01:27:19;;;;;;;;;;;;;;;;;;1027970;28;850;-34
2022/03/27 01:27:49;;;;;;;;;;;;;;;;;;1027789;28;835;-31
2022/03/27 01:28:19;;;;;;;;;;;;;;;;;;1027891;28;791;-35
2022/03/27 01:28:51;;;;;;;;;;;;;;;;;;1027754;28;976;-34
2022/03/27 01:29:21;;;;;;;;;;;;;;;;;;1027742;28;1965;-33
2022/03/27 01:29:53;;;;;;;;;;;;;;;;;;1027869;28;885;-34
2022/03/27 01:30:23;;;;;;;;;;;;;;;;;;1027870;28;886;-32
2022/03/27 01:30:54;;;;;;;;;;;;;;;;;;1027688;28;847;-32
2022/03/27 01:31:24;;;;;;;;;;;;;;;;;;1027952;28;957;-34
2022/03/27 01:31:55;;;;;;;;;;;;;;;;;;1027715;28;977;-34
2022/03/27 01:32:25;;;;;;;;;;;;;;;;;;1027884;28;914;-32
2022/03/27 01:32:56;;;;;;;;;;;;;;;;;;1027841;28;811;-34
2022/03/27 01:33:26;;;;;;;;;;;;;;;;;;1027780;28;993;-33
2022/03/27 01:33:56;;;;;;;;;;;;;;;;;;1027444;28;910;-34
2022/03/27 01:34:27;;;;;;;;;;;;;;;;;;1027948;28;879;-32
2022/03/27 01:34:57;;;;;;;;;;;;;;;;;;1027396;28;1024;-33
2022/03/27 01:35:28;;;;;;;;;;;;;;;;;;1027861;28;894;-32
2022/03/27 01:35:58;;;;;;;;;;;;;;;;;;1027891;28;910;-32
2022/03/27 01:36:34;;;;;;;;;;;;;;;;;;1027747;28;891;-32
2022/03/27 01:37:08;;;;;;;;;;;;;;;;;;1027952;28;776;-30
2022/03/27 01:37:38;;;;;;;;;;;;;;;;;;1027700;28;1078;-35
2022/03/27 01:38:09;;;;;;;;;;;;;;;;;;1027926;28;926;-34
2022/03/27 01:38:39;;;;;;;;;;;;;;;;;;1027304;28;945;-30
2022/03/27 01:39:12;;;;;;;;;;;;;;;;;;1027723;28;903;-34
2022/03/27 01:39:43;;;;;;;;;;;;;;;;;;1027861;28;894;-30
2022/03/27 01:40:13;;;;;;;;;;;;;;;;;;1027738;28;858;-32
2022/03/27 01:40:44;;;;;;;;;;;;;;;;;;1027889;28;1636;-29
2022/03/27 01:41:14;;;;;;;;;;;;;;;;;;1027461;28;831;-31
2022/03/27 01:42:16;;;;;;;;;;;;;;;;;;1027740;28;712;-32
2022/03/27 01:42:52;;;;;;;;;;;;;;;;;;1027753;28;1701;-33
2022/03/27 01:43:23;;;;;;;;;;;;;;;;;;1027848;28;870;-35
2022/03/27 01:43:54;;;;;;;;;;;;;;;;;;1027842;28;842;-34
2022/03/27 01:44:24;;;;;;;;;;;;;;;;;;1027952;28;804;-34
2022/03/27 01:44:54;;;;;;;;;;;;;;;;;;1027685;28;891;-33
2022/03/27 01:45:38;;;;;;;;;;;;;;;;;;1027578;28;878;-35
2022/03/27 01:46:08;;;;;;;;;;;;;;;;;;1027880;28;879;-33
2022/03/27 01:46:40;;;;;;;;;;;;;;;;;;1027881;28;871;-35
2022/03/27 01:47:10;;;;;;;;;;;;;;;;;;1027795;28;953;-35
2022/03/27 01:47:41;;;;;;;;;;;;;;;;;;1027655;28;993;-34
2022/03/27 01:48:11;;;;;;;;;;;;;;;;;;1027842;28;776;-35
2022/03/27 01:48:41;;;;;;;;;;;;;;;;;;1027437;28;886;-33
2022/03/27 01:49:13;;;;;;;;;;;;;;;;;;1027786;28;1987;-32
2022/03/27 01:49:43;;;;;;;;;;;;;;;;;;1027569;28;927;-33
2022/03/27 01:50:13;;;;;;;;;;;;;;;;;;1027842;28;890;-33
2022/03/27 01:50:56;;;;;;;;;;;;;;;;;;1027763;28;874;-33
2022/03/27 01:51:27;;;;;;;;;;;;;;;;;;1027897;28;977;-31
2022/03/27 01:51:58;;;;;;;;;;;;;;;;;;1027619;28;992;-31
2022/03/27 01:52:28;;;;;;;;;;;;;;;;;;1027782;28;862;-34
2022/03/27 01:52:58;;;;;;;;;;;;;;;;;;1027844;28;814;-33
2022/03/27 01:53:29;;;;;;;;;;;;;;;;;;1027704;28;922;-32
2022/03/27 01:54:00;;;;;;;;;;;;;;;;;;1027756;28;902;-32
2022/03/27 01:54:30;;;;;;;;;;;;;;;;;;1027706;28;930;-35
2022/03/27 01:55:00;;;;;;;;;;;;;;;;;;1027779;28;862;-32
2022/03/27 01:55:30;;;;;;;;;;;;;;;;;;1027838;28;822;-35
2022/03/27 01:56:01;;;;;;;;;;;;;;;;;;1027339;28;804;-31
2022/03/27 01:56:31;;;;;;;;;;;;;;;;;;1027724;28;946;-35
2022/03/27 01:57:02;;;;;;;;;;;;;;;;;;1027831;28;883;-35
2022/03/27 01:57:33;;;;;;;;;;;;;;;;;;1027701;28;902;-35
2022/03/27 01:58:06;;;;;;;;;;;;;;;;;;1027795;28;909;-35
2022/03/27 01:58:38;;;;;;;;;;;;;;;;;;1027839;28;800;-31
2022/03/27 01:59:09;;;;;;;;;;;;;;;;;;1027642;28;830;-35
2022/03/27 01:59:39;;;;;;;;;;;;;;;;;;1027807;28;997;-34
2022/03/27 02:00:11;;;;;;;;;;;;;;;;;;1027458;28;922;-33
2022/03/27 02:00:47;;;;;;;;;;;;;;;;;;1027892;28;778;-34
2022/03/27 02:01:19;;;;;;;;;;;;;;;;;;1027835;28;985;-34
2022/03/27 02:01:50;;;;;;;;;;;;;;;;;;1031128;28;1173;-32
2022/03/27 02:02:24;;;;;;;;;;;;;;;;;;1031531;28;811;-35
2022/03/27 02:02:54;;;;;;;;;;;;;;;;;;1031214;28;949;-35
2022/03/27 02:03:28;;;;;;;;;;;;;;;;;;1030668;28;922;-33
2022/03/27 02:03:58;;;;;;;;;;;;;;;;;;1027735;28;835;-32
2022/03/27 02:04:28;;;;;;;;;;;;;;;;;;1027639;28;922;-31
2022/03/27 02:05:00;;;;;;;;;;;;;;;;;;1027752;28;910;-33
2022/03/27 02:05:31;;;;;;;;;;;;;;;;;;1027652;28;898;-30
2022/03/27 02:06:05;;;;;;;;;;;;;;;;;;1027791;28;903;-33
2022/03/27 02:06:39;;;;;;;;;;;;;;;;;;1027653;28;961;-34
2022/03/27 02:07:09;;;;;;;;;;;;;;;;;;1027631;28;930;-35
2022/03/27 02:07:42;;;;;;;;;;;;;;;;;;1027836;28;961;-33
2022/03/27 02:08:13;;;;;;;;;;;;;;;;;;1027585;28;843;-36
2022/03/27 02:08:43;;;;;;;;;;;;;;;;;;1027814;28;879;-30
2022/03/27 02:09:14;;;;;;;;;;;;;;;;;;1027518;28;2285;-32
2022/03/27 02:09:45;;;;;;;;;;;;;;;;;;1027738;28;879;-33
2022/03/27 02:10:17;;;;;;;;;;;;;;;;;;1027685;28;850;-33
2022/03/27 02:10:48;;;;;;;;;;;;;;;;;;1027129;28;733;-31
2022/03/27 02:11:19;;;;;;;;;;;;;;;;;;1027777;28;764;-31
2022/03/27 02:11:49;;;;;;;;;;;;;;;;;;1027483;28;1357;-33
2022/03/27 02:12:19;;;;;;;;;;;;;;;;;;1027808;28;945;-35
2022/03/27 02:12:49;;;;;;;;;;;;;;;;;;1027687;28;787;-35
2022/03/27 02:13:22;;;;;;;;;;;;;;;;;;1027621;28;803;-35
2022/03/27 02:13:52;;;;;;;;;;;;;;;;;;1027657;28;942;-34
2022/03/27 02:14:23;;;;;;;;;;;;;;;;;;1027734;28;898;-35
2022/03/27 02:14:53;;;;;;;;;;;;;;;;;;1027502;28;957;-33
2022/03/27 02:15:24;;;;;;;;;;;;;;;;;;1027889;28;906;-35
2022/03/27 02:15:57;;;;;;;;;;;;;;;;;;1027555;28;902;-36
2022/03/27 02:16:28;;;;;;;;;;;;;;;;;;1027809;28;811;-35
2022/03/27 02:16:58;;;;;;;;;;;;;;;;;;1027702;28;910;-34
2022/03/27 02:17:28;;;;;;;;;;;;;;;;;;1027580;28;1525;-32
2022/03/27 02:18:01;;;;;;;;;;;;;;;;;;1027796;28;822;-34
2022/03/27 02:18:32;;;;;;;;;;;;;;;;;;1027390;28;945;-33
2022/03/27 02:19:06;;;;;;;;;;;;;;;;;;1027596;28;1304;-30
2022/03/27 02:19:37;;;;;;;;;;;;;;;;;;1027816;28;942;-34
2022/03/27 02:20:07;;;;;;;;;;;;;;;;;;1027416;28;989;-31
2022/03/27 02:20:39;;;;;;;;;;;;;;;;;;1027662;28;891;-32
2022/03/27 02:21:10;;;;;;;;;;;;;;;;;;1027447;28;934;-34
2022/03/27 02:21:42;;;;;;;;;;;;;;;;;;1027281;28;859;-33
2022/03/27 02:22:12;;;;;;;;;;;;;;;;;;1027328;28;922;-33
2022/03/27 02:22:42;;;;;;;;;;;;;;;;;;1027566;28;1182;-33
2022/03/27 02:23:13;;;;;;;;;;;;;;;;;;1031230;28;866;-32
2022/03/27 02:23:43;;;;;;;;;;;;;;;;;;1031761;28;890;-34
2022/03/27 02:24:13;;;;;;;;;;;;;;;;;;1031634;28;806;-36
2022/03/27 02:24:43;;;;;;;;;;;;;;;;;;1031762;28;953;-35
2022/03/27 02:25:14;;;;;;;;;;;;;;;;;;1031387;28;1363;-30
2022/03/27 02:25:44;;;;;;;;;;;;;;;;;;1031474;28;838;-33
2022/03/27 02:26:15;;;;;;;;;;;;;;;;;;1031570;28;969;-31
2022/03/27 02:26:46;;;;;;;;;;;;;;;;;;1031726;28;934;-33
2022/03/27 02:27:16;;;;;;;;;;;;;;;;;;1031649;28;842;-35
2022/03/27 02:27:46;;;;;;;;;;;;;;;;;;1031619;28;921;-35
2022/03/27 02:28:17;;;;;;;;;;;;;;;;;;1031657;28;815;-35
2022/03/27 02:28:47;;;;;;;;;;;;;;;;;;1031732;28;783;-30
2022/03/27 02:29:18;;;;;;;;;;;;;;;;;;1031431;28;2011;-34
2022/03/27 02:29:48;;;;;;;;;;;;;;;;;;1031638;28;980;-35
2022/03/27 02:30:20;;;;;;;;;;;;;;;;;;1031499;28;1224;-33
2022/03/27 02:30:50;;;;;;;;;;;;;;;;;;1031553;28;824;-28
2022/03/27 02:31:21;;;;;;;;;;;;;;;;;;1031662;28;1624;-33
2022/03/27 02:31:51;;;;;;;;;;;;;;;;;;1031415;28;925;-34
2022/03/27 02:32:21;;;;;;;;;;;;;;;;;;1031620;28;861;-34
2022/03/27 02:32:52;;;;;;;;;;;;;;;;;;1031441;28;907;-36
2022/03/27 02:33:22;;;;;;;;;;;;;;;;;;1031438;28;965;-34
2022/03/27 02:33:53;;;;;;;;;;;;;;;;;;1031449;28;871;-31
2022/03/27 02:34:23;;;;;;;;;;;;;;;;;;1031586;28;910;-31
2022/03/27 02:34:54;;;;;;;;;;;;;;;;;;1031452;28;1003;-34
2022/03/27 02:35:24;;;;;;;;;;;;;;;;;;1031662;28;822;-33
2022/03/27 02:35:54;;;;;;;;;;;;;;;;;;1031434;28;850;-30
2022/03/27 02:36:24;;;;;;;;;;;;;;;;;;1031667;28;945;-33
2022/03/27 02:36:55;;;;;;;;;;;;;;;;;;1031583;28;830;-33
2022/03/27 02:37:25;;;;;;;;;;;;;;;;;;1031574;28;910;-32
2022/03/27 02:37:56;;;;;;;;;;;;;;;;;;1031577;28;846;-34
2022/03/27 02:38:26;;;;;;;;;;;;;;;;;;1031553;28;807;-36
2022/03/27 02:38:56;;;;;;;;;;;;;;;;;;1031611;28;1664;-36
2022/03/27 02:39:27;;;;;;;;;;;;;;;;;;1031605;28;953;-33
2022/03/27 02:39:57;;;;;;;;;;;;;;;;;;1031495;28;807;-35
2022/03/27 02:40:28;;;;;;;;;;;;;;;;;;1031156;28;964;-33
2022/03/27 02:40:58;;;;;;;;;;;;;;;;;;1031609;28;798;-34
2022/03/27 02:41:28;;;;;;;;;;;;;;;;;;1031587;28;823;-32
2022/03/27 02:41:59;;;;;;;;;;;;;;;;;;1031541;28;909;-35
2022/03/27 02:42:29;;;;;;;;;;;;;;;;;;1031466;28;851;-35
2022/03/27 02:42:59;;;;;;;;;;;;;;;;;;1031771;28;918;-31
2022/03/27 02:43:30;;;;;;;;;;;;;;;;;;1031546;28;795;-35
2022/03/27 02:44:01;;;;;;;;;;;;;;;;;;1031622;28;973;-35
2022/03/27 02:44:31;;;;;;;;;;;;;;;;;;1031543;28;989;-33
2022/03/27 02:45:02;;;;;;;;;;;;;;;;;;1031598;28;906;-34
2022/03/27 02:45:32;;;;;;;;;;;;;;;;;;1031587;28;792;-36
2022/03/27 02:46:03;;;;;;;;;;;;;;;;;;1031663;28;930;-35
2022/03/27 02:46:33;;;;;;;;;;;;;;;;;;1031357;28;850;-36
2022/03/27 02:47:04;;;;;;;;;;;;;;;;;;1031608;28;941;-37
2022/03/27 02:47:35;;;;;;;;;;;;;;;;;;1031477;28;1100;-33
2022/03/27 02:48:06;;;;;;;;;;;;;;;;;;1031327;28;898;-33
2022/03/27 02:48:36;;;;;;;;;;;;;;;;;;1031567;28;954;-35
2022/03/27 02:49:07;;;;;;;;;;;;;;;;;;1031487;28;945;-36
2022/03/27 02:49:37;;;;;;;;;;;;;;;;;;1031513;28;1985;-33
2022/03/27 02:50:07;;;;;;;;;;;;;;;;;;1031044;28;913;-34
2022/03/27 02:50:39;;;;;;;;;;;;;;;;;;1031092;28;906;-34
2022/03/27 02:51:09;;;;;;;;;;;;;;;;;;1031557;28;787;-33
2022/03/27 02:51:41;;;;;;;;;;;;;;;;;;1031355;28;988;-34
2022/03/27 02:52:11;;;;;;;;;;;;;;;;;;1031653;28;903;-33
2022/03/27 02:52:42;;;;;;;;;;;;;;;;;;1031707;28;1413;-31
2022/03/27 02:53:12;;;;;;;;;;;;;;;;;;1031452;28;847;-35
2022/03/27 02:53:43;;;;;;;;;;;;;;;;;;1031618;28;881;-30
2022/03/27 02:54:13;;;;;;;;;;;;;;;;;;1031533;28;784;-30
2022/03/27 02:54:44;;;;;;;;;;;;;;;;;;1031545;28;906;-36
2022/03/27 02:55:14;;;;;;;;;;;;;;;;;;1031234;28;807;-34
2022/03/27 02:55:45;;;;;;;;;;;;;;;;;;1031547;28;894;-34
2022/03/27 02:56:15;;;;;;;;;;;;;;;;;;1031605;28;906;-35
2022/03/27 02:56:46;;;;;;;;;;;;;;;;;;1031443;28;942;-30
2022/03/27 02:57:16;;;;;;;;;;;;;;;;;;1031576;28;834;-31
2022/03/27 02:57:47;;;;;;;;;;;;;;;;;;1031553;28;934;-36
2022/03/27 02:58:18;;;;;;;;;;;;;;;;;;1031559;28;878;-34
2022/03/27 02:58:48;;;;;;;;;;;;;;;;;;1031569;28;957;-35
2022/03/27 02:59:19;;;;;;;;;;;;;;;;;;1031665;28;835;-33
2022/03/27 02:59:52;;;;;;;;;;;;;;;;;;1031311;28;1016;-34
2022/03/27 03:00:23;;;;;;;;;;;;;;;;;;1031594;28;792;-33
2022/03/27 03:00:54;;;;;;;;;;;;;;;;;;1031490;28;823;-35
2022/03/27 03:01:24;;;;;;;;;;;;;;;;;;1031561;28;878;-33
2022/03/27 03:01:55;;;;;;;;;;;;;;;;;;1031542;28;914;-34
2022/03/27 03:02:25;;;;;;;;;;;;;;;;;;1031394;28;820;-32
2022/03/27 03:02:56;;;;;;;;;;;;;;;;;;1031286;28;988;-33
2022/03/27 03:03:26;;;;;;;;;;;;;;;;;;1031338;28;922;-32
2022/03/27 03:03:57;;;;;;;;;;;;;;;;;;1031562;28;899;-32
2022/03/27 03:04:27;;;;;;;;;;;;;;;;;;1031509;28;965;-33
2022/03/27 03:04:58;;;;;;;;;;;;;;;;;;1031477;28;1057;-35
2022/03/27 03:05:28;;;;;;;;;;;;;;;;;;1031465;28;1078;-35
2022/03/27 03:05:59;;;;;;;;;;;;;;;;;;1031595;28;996;-30
2022/03/27 03:06:30;;;;;;;;;;;;;;;;;;1031446;28;906;-36
2022/03/27 03:07:01;;;;;;;;;;;;;;;;;;1031626;28;803;-36
2022/03/27 03:07:33;;;;;;;;;;;;;;;;;;1031394;28;942;-35
2022/03/27 03:08:03;;;;;;;;;;;;;;;;;;1031669;28;974;-35
2022/03/27 03:08:36;;;;;;;;;;;;;;;;;;1031520;28;874;-31
2022/03/27 03:09:06;;;;;;;;;;;;;;;;;;1031472;28;938;-32
2022/03/27 03:09:37;;;;;;;;;;;;;;;;;;1031419;28;1906;-34
2022/03/27 03:10:08;;;;;;;;;;;;;;;;;;1030942;28;992;-33
2022/03/27 03:10:39;;;;;;;;;;;;;;;;;;1031501;28;934;-33
2022/03/27 03:11:13;;;;;;;;;;;;;;;;;;1031430;28;883;-31
2022/03/27 03:11:44;;;;;;;;;;;;;;;;;;1031205;28;1005;-36
2022/03/27 03:12:14;;;;;;;;;;;;;;;;;;1031386;28;945;-34
2022/03/27 03:12:47;;;;;;;;;;;;;;;;;;1031386;28;831;-33
2022/03/27 03:13:17;;;;;;;;;;;;;;;;;;1031449;28;969;-36
2022/03/27 03:13:49;;;;;;;;;;;;;;;;;;1031551;28;914;-32
2022/03/27 03:14:20;;;;;;;;;;;;;;;;;;1031401;28;898;-33
2022/03/27 03:14:55;;;;;;;;;;;;;;;;;;1031507;28;937;-33
2022/03/27 03:15:26;;;;;;;;;;;;;;;;;;1031440;28;985;-33
2022/03/27 03:15:57;;;;;;;;;;;;;;;;;;1031549;28;958;-32
2022/03/27 03:16:28;;;;;;;;;;;;;;;;;;1031470;28;886;-35
2022/03/27 03:17:04;;;;;;;;;;;;;;;;;;1031443;28;893;-36
2022/03/27 03:17:35;;;;;;;;;;;;;;;;;;1031079;28;878;-34
2022/03/27 03:18:06;;;;;;;;;;;;;;;;;;1031387;28;950;-34
2022/03/27 03:18:37;;;;;;;;;;;;;;;;;;1031325;28;1233;-33
2022/03/27 03:19:08;;;;;;;;;;;;;;;;;;1031450;28;866;-33
2022/03/27 03:19:38;;;;;;;;;;;;;;;;;;1031436;28;812;-34
2022/03/27 03:20:09;;;;;;;;;;;;;;;;;;1031383;28;893;-34
2022/03/27 03:20:39;;;;;;;;;;;;;;;;;;1035023;28;1340;-33
2022/03/27 03:21:10;;;;;;;;;;;;;;;;;;1035101;28;925;-34
2022/03/27 03:21:40;;;;;;;;;;;;;;;;;;1035082;28;831;-30
2022/03/27 03:22:17;;;;;;;;;;;;;;;;;;1034515;28;889;-36
2022/03/27 03:22:51;;;;;;;;;;;;;;;;;;1031325;28;1107;-34
2022/03/27 03:23:22;;;;;;;;;;;;;;;;;;1031240;28;941;-33
2022/03/27 03:23:52;;;;;;;;;;;;;;;;;;1031418;28;1028;-35
2022/03/27 03:24:25;;;;;;;;;;;;;;;;;;1031457;28;878;-35
2022/03/27 03:24:57;;;;;;;;;;;;;;;;;;1031030;28;1506;-33
2022/03/27 03:25:27;;;;;;;;;;;;;;;;;;1031350;28;763;-36
2022/03/27 03:26:04;;;;;;;;;;;;;;;;;;1031353;28;827;-35
2022/03/27 03:26:35;;;;;;;;;;;;;;;;;;1031191;28;982;-35
2022/03/27 03:27:05;;;;;;;;;;;;;;;;;;1031555;28;799;-33
2022/03/27 03:27:36;;;;;;;;;;;;;;;;;;1031113;28;1008;-32
2022/03/27 03:28:06;;;;;;;;;;;;;;;;;;1031459;28;968;-36
2022/03/27 03:28:37;;;;;;;;;;;;;;;;;;1031197;28;791;-33
2022/03/27 03:29:07;;;;;;;;;;;;;;;;;;1031348;28;870;-31
2022/03/27 03:29:37;;;;;;;;;;;;;;;;;;1031318;28;1978;-33
2022/03/27 03:30:09;;;;;;;;;;;;;;;;;;1030993;28;1110;-33
2022/03/27 03:30:39;;;;;;;;;;;;;;;;;;1031282;28;910;-32
2022/03/27 03:31:09;;;;;;;;;;;;;;;;;;1031338;28;1737;-33
2022/03/27 03:31:39;;;;;;;;;;;;;;;;;;1031125;28;934;-34
2022/03/27 03:32:10;;;;;;;;;;;;;;;;;;1031049;28;815;-34
2022/03/27 03:32:40;;;;;;;;;;;;;;;;;;1031106;28;902;-34
2022/03/27 03:33:11;;;;;;;;;;;;;;;;;;1031403;28;859;-32
2022/03/27 03:33:42;;;;;;;;;;;;;;;;;;1031265;28;997;-29
2022/03/27 03:34:12;;;;;;;;;;;;;;;;;;1031401;28;791;-32
2022/03/27 03:34:42;;;;;;;;;;;;;;;;;;1031302;28;965;-33
2022/03/27 03:35:12;;;;;;;;;;;;;;;;;;1031157;28;1133;-32
2022/03/27 03:35:43;;;;;;;;;;;;;;;;;;1031267;28;897;-32
2022/03/27 03:36:15;;;;;;;;;;;;;;;;;;1031401;28;1380;-32
2022/03/27 03:36:45;;;;;;;;;;;;;;;;;;1031036;28;973;-30
2022/03/27 03:37:17;;;;;;;;;;;;;;;;;;1031476;28;827;-33
2022/03/27 03:37:48;;;;;;;;;;;;;;;;;;1031178;28;906;-31
2022/03/27 03:38:18;;;;;;;;;;;;;;;;;;1031462;28;909;-36
2022/03/27 03:38:48;;;;;;;;;;;;;;;;;;1031178;28;905;-32
2022/03/27 03:39:19;;;;;;;;;;;;;;;;;;1031267;28;870;-32
2022/03/27 03:39:49;;;;;;;;;;;;;;;;;;1031069;28;894;-33
2022/03/27 03:40:20;;;;;;;;;;;;;;;;;;1031271;28;1583;-35
2022/03/27 03:40:50;;;;;;;;;;;;;;;;;;1031245;28;1624;-34
2022/03/27 03:41:20;;;;;;;;;;;;;;;;;;1031481;28;937;-33